sensor_id;sensor_type;location;lat;lon;timestamp;pressure;altitude;pressure_sealevel;temperature;humidity
52719;BME280;38616;42.140;24.760;2022-09-27T00:01:01;98608.19;;;18.32;63.80
52719;BME280;38616;42.140;24.760;2022-09-27T00:03:27;98609.47;;;18.54;63.75
52719;BME280;38616;42.140;24.760;2022-09-27T00:05:59;98614.59;;;18.56;63.56
52719;BME280;38616;42.140;24.760;2022-09-27T00:08:26;98605.38;;;18.84;63.32
52719;BME280;38616;42.140;24.760;2022-09-27T00:10:57;98597.63;;;18.70;63.91
52719;BME280;38616;42.140;24.760;2022-09-27T00:13:22;98591.31;;;18.50;65.17
52719;BME280;38616;42.140;24.760;2022-09-27T00:15:54;98594.50;;;18.52;65.74
52719;BME280;38616;42.140;24.760;2022-09-27T00:18:19;98601.59;;;18.53;66.01
52719;BME280;38616;42.140;24.760;2022-09-27T00:20:44;98603.50;;;18.16;68.02
52719;BME280;38616;42.140;24.760;2022-09-27T00:23:10;98591.59;;;18.28;68.20
52719;BME280;38616;42.140;24.760;2022-09-27T00:25:37;98591.06;;;18.23;68.56
52719;BME280;38616;42.140;24.760;2022-09-27T00:28:03;98586.00;;;18.25;69.60
52719;BME280;38616;42.140;24.760;2022-09-27T00:30:28;98592.03;;;17.98;71.09
52719;BME280;38616;42.140;24.760;2022-09-27T00:32:53;98604.66;;;17.71;72.50
52719;BME280;38616;42.140;24.760;2022-09-27T00:35:19;98602.59;;;17.96;72.12
52719;BME280;38616;42.140;24.760;2022-09-27T00:37:46;98609.69;;;18.13;71.41
52719;BME280;38616;42.140;24.760;2022-09-27T00:40:12;98606.28;;;18.52;70.22
52719;BME280;38616;42.140;24.760;2022-09-27T00:42:38;98597.69;;;18.73;68.94
52719;BME280;38616;42.140;24.760;2022-09-27T00:47:36;98595.03;;;18.41;70.38
52719;BME280;38616;42.140;24.760;2022-09-27T00:55:12;98577.13;;;18.67;69.43
52719;BME280;38616;42.140;24.760;2022-09-27T00:57:40;98578.72;;;18.33;70.89
52719;BME280;38616;42.140;24.760;2022-09-27T01:00:07;98586.72;;;18.22;71.90
52719;BME280;38616;42.140;24.760;2022-09-27T01:02:36;98586.09;;;18.44;71.39
52719;BME280;38616;42.140;24.760;2022-09-27T01:05:03;98573.66;;;18.35;71.49
52719;BME280;38616;42.140;24.760;2022-09-27T01:07:29;98565.69;;;18.29;71.74
52719;BME280;38616;42.140;24.760;2022-09-27T01:09:55;98559.69;;;18.24;72.20
52719;BME280;38616;42.140;24.760;2022-09-27T01:15:05;98551.94;;;18.45;71.33
52719;BME280;38616;42.140;24.760;2022-09-27T01:30:58;98573.28;;;18.52;70.82
52719;BME280;38616;42.140;24.760;2022-09-27T01:33:09;98563.38;;;18.48;70.96
52719;BME280;38616;42.140;24.760;2022-09-27T01:38:15;98566.06;;;18.28;71.56
52719;BME280;38616;42.140;24.760;2022-09-27T01:40:50;98578.22;;;18.27;71.71
52719;BME280;38616;42.140;24.760;2022-09-27T01:43:20;98581.78;;;18.11;72.13
52719;BME280;38616;42.140;24.760;2022-09-27T01:48:19;98586.59;;;18.50;70.36
52719;BME280;38616;42.140;24.760;2022-09-27T01:50:56;98573.34;;;18.56;69.95
52719;BME280;38616;42.140;24.760;2022-09-27T01:53:37;98569.03;;;18.74;69.30
52719;BME280;38616;42.140;24.760;2022-09-27T01:56:06;98559.88;;;18.86;68.68
52719;BME280;38616;42.140;24.760;2022-09-27T01:58:36;98571.81;;;18.94;68.53
52719;BME280;38616;42.140;24.760;2022-09-27T02:01:05;98564.75;;;19.13;67.33
52719;BME280;38616;42.140;24.760;2022-09-27T02:03:34;98565.44;;;18.90;68.01
52719;BME280;38616;42.140;24.760;2022-09-27T02:06:00;98560.91;;;18.98;68.20
52719;BME280;38616;42.140;24.760;2022-09-27T02:10:51;98544.88;;;18.84;68.20
52719;BME280;38616;42.140;24.760;2022-09-27T02:13:20;98537.47;;;18.88;68.13
52719;BME280;38616;42.140;24.760;2022-09-27T02:18:13;98522.56;;;18.89;68.27
52719;BME280;38616;42.140;24.760;2022-09-27T02:20:40;98532.78;;;18.88;68.20
52719;BME280;38616;42.140;24.760;2022-09-27T02:25:59;98535.34;;;18.97;67.51
52719;BME280;38616;42.140;24.760;2022-09-27T02:28:28;98540.06;;;18.97;67.78
52719;BME280;38616;42.140;24.760;2022-09-27T02:30:55;98549.16;;;19.01;67.68
52719;BME280;38616;42.140;24.760;2022-09-27T02:33:25;98561.13;;;19.09;67.53
52719;BME280;38616;42.140;24.760;2022-09-27T02:35:52;98563.66;;;18.98;67.91
52719;BME280;38616;42.140;24.760;2022-09-27T02:38:17;98571.13;;;18.97;68.22
52719;BME280;38616;42.140;24.760;2022-09-27T02:40:44;98574.97;;;18.76;69.36
52719;BME280;38616;42.140;24.760;2022-09-27T02:43:10;98581.28;;;18.77;68.93
52719;BME280;38616;42.140;24.760;2022-09-27T02:48:14;98573.47;;;18.79;68.97
52719;BME280;38616;42.140;24.760;2022-09-27T02:50:44;98572.19;;;18.93;68.66
52719;BME280;38616;42.140;24.760;2022-09-27T02:53:21;98555.91;;;19.03;68.24
52719;BME280;38616;42.140;24.760;2022-09-27T03:00:46;98561.94;;;18.54;70.73
52719;BME280;38616;42.140;24.760;2022-09-27T03:03:14;98557.38;;;18.26;71.62
52719;BME280;38616;42.140;24.760;2022-09-27T03:06:05;98557.44;;;18.45;70.49
52719;BME280;38616;42.140;24.760;2022-09-27T03:08:28;98547.22;;;18.46;70.45
52719;BME280;38616;42.140;24.760;2022-09-27T03:10:54;98548.22;;;18.38;70.78
52719;BME280;38616;42.140;24.760;2022-09-27T03:13:19;98544.41;;;18.26;71.21
52719;BME280;38616;42.140;24.760;2022-09-27T03:15:44;98540.75;;;18.02;71.57
52719;BME280;38616;42.140;24.760;2022-09-27T03:18:10;98536.00;;;18.19;71.50
52719;BME280;38616;42.140;24.760;2022-09-27T03:20:35;98534.91;;;18.40;70.10
52719;BME280;38616;42.140;24.760;2022-09-27T03:23:00;98533.34;;;18.23;70.53
52719;BME280;38616;42.140;24.760;2022-09-27T03:25:25;98528.47;;;18.16;70.59
52719;BME280;38616;42.140;24.760;2022-09-27T03:27:51;98525.28;;;18.30;70.30
52719;BME280;38616;42.140;24.760;2022-09-27T03:30:16;98528.13;;;18.17;70.44
52719;BME280;38616;42.140;24.760;2022-09-27T03:32:42;98528.91;;;18.34;69.54
52719;BME280;38616;42.140;24.760;2022-09-27T03:35:07;98539.78;;;18.30;69.48
52719;BME280;38616;42.140;24.760;2022-09-27T03:37:33;98545.53;;;18.06;70.27
52719;BME280;38616;42.140;24.760;2022-09-27T03:39:58;98532.41;;;17.83;70.53
52719;BME280;38616;42.140;24.760;2022-09-27T03:42:23;98517.22;;;17.73;70.66
52719;BME280;38616;42.140;24.760;2022-09-27T03:44:49;98515.19;;;17.70;70.68
52719;BME280;38616;42.140;24.760;2022-09-27T03:47:15;98504.38;;;17.77;70.56
52719;BME280;38616;42.140;24.760;2022-09-27T03:49:40;98499.06;;;17.84;70.01
52719;BME280;38616;42.140;24.760;2022-09-27T03:52:05;98505.69;;;18.15;68.57
52719;BME280;38616;42.140;24.760;2022-09-27T03:54:31;98509.94;;;17.97;68.95
52719;BME280;38616;42.140;24.760;2022-09-27T03:56:57;98502.53;;;17.81;69.31
52719;BME280;38616;42.140;24.760;2022-09-27T03:59:23;98510.50;;;17.86;69.12
52719;BME280;38616;42.140;24.760;2022-09-27T04:01:48;98516.88;;;17.75;69.73
52719;BME280;38616;42.140;24.760;2022-09-27T04:04:13;98512.09;;;17.87;69.12
52719;BME280;38616;42.140;24.760;2022-09-27T04:06:39;98515.91;;;17.83;69.43
52719;BME280;38616;42.140;24.760;2022-09-27T04:09:04;98517.31;;;17.93;69.19
52719;BME280;38616;42.140;24.760;2022-09-27T04:11:29;98495.88;;;18.14;68.02
52719;BME280;38616;42.140;24.760;2022-09-27T04:13:55;98483.56;;;18.08;68.29
52719;BME280;38616;42.140;24.760;2022-09-27T04:16:20;98490.44;;;18.18;67.23
52719;BME280;38616;42.140;24.760;2022-09-27T04:18:45;98492.25;;;18.10;67.57
52719;BME280;38616;42.140;24.760;2022-09-27T04:21:11;98486.94;;;18.01;68.08
52719;BME280;38616;42.140;24.760;2022-09-27T04:23:36;98483.63;;;18.12;67.42
52719;BME280;38616;42.140;24.760;2022-09-27T04:26:02;98494.47;;;18.40;66.74
52719;BME280;38616;42.140;24.760;2022-09-27T04:28:27;98490.41;;;18.34;66.68
52719;BME280;38616;42.140;24.760;2022-09-27T04:30:53;98489.59;;;18.34;66.80
52719;BME280;38616;42.140;24.760;2022-09-27T04:33:19;98499.72;;;18.29;65.88
52719;BME280;38616;42.140;24.760;2022-09-27T04:35:44;98493.66;;;18.04;66.64
52719;BME280;38616;42.140;24.760;2022-09-27T04:38:28;98491.72;;;17.88;67.63
52719;BME280;38616;42.140;24.760;2022-09-27T04:40:53;98499.44;;;17.83;67.42
52719;BME280;38616;42.140;24.760;2022-09-27T04:43:18;98489.16;;;17.80;67.42
52719;BME280;38616;42.140;24.760;2022-09-27T04:45:44;98487.56;;;17.79;67.30
52719;BME280;38616;42.140;24.760;2022-09-27T04:48:09;98480.66;;;17.85;66.79
52719;BME280;38616;42.140;24.760;2022-09-27T04:50:34;98472.13;;;18.06;66.67
52719;BME280;38616;42.140;24.760;2022-09-27T04:53:00;98474.38;;;18.20;65.94
52719;BME280;38616;42.140;24.760;2022-09-27T04:55:25;98479.03;;;18.00;66.29
52719;BME280;38616;42.140;24.760;2022-09-27T04:57:51;98468.44;;;18.18;65.87
52719;BME280;38616;42.140;24.760;2022-09-27T05:00:17;98460.66;;;18.40;64.88
52719;BME280;38616;42.140;24.760;2022-09-27T05:02:43;98467.41;;;18.62;64.51
52719;BME280;38616;42.140;24.760;2022-09-27T05:05:08;98470.53;;;18.60;64.00
52719;BME280;38616;42.140;24.760;2022-09-27T05:07:35;98478.34;;;18.58;64.48
52719;BME280;38616;42.140;24.760;2022-09-27T05:10:01;98473.56;;;18.75;64.14
52719;BME280;38616;42.140;24.760;2022-09-27T05:12:26;98472.53;;;18.83;63.60
52719;BME280;38616;42.140;24.760;2022-09-27T05:14:52;98469.81;;;18.64;63.67
52719;BME280;38616;42.140;24.760;2022-09-27T05:17:17;98478.19;;;18.51;64.25
52719;BME280;38616;42.140;24.760;2022-09-27T05:19:44;98481.81;;;18.75;63.65
52719;BME280;38616;42.140;24.760;2022-09-27T05:22:10;98480.66;;;18.96;63.47
52719;BME280;38616;42.140;24.760;2022-09-27T05:24:35;98476.28;;;19.14;62.48
52719;BME280;38616;42.140;24.760;2022-09-27T05:27:02;98471.50;;;19.11;61.99
52719;BME280;38616;42.140;24.760;2022-09-27T05:29:28;98462.00;;;19.28;61.55
52719;BME280;38616;42.140;24.760;2022-09-27T05:31:53;98455.91;;;18.76;62.49
52719;BME280;38616;42.140;24.760;2022-09-27T05:34:19;98457.56;;;18.81;62.37
52719;BME280;38616;42.140;24.760;2022-09-27T05:36:48;98449.69;;;18.79;62.61
52719;BME280;38616;42.140;24.760;2022-09-27T05:39:13;98456.44;;;19.05;61.85
52719;BME280;38616;42.140;24.760;2022-09-27T05:41:40;98458.41;;;19.04;61.57
52719;BME280;38616;42.140;24.760;2022-09-27T05:44:06;98454.09;;;18.64;62.73
52719;BME280;38616;42.140;24.760;2022-09-27T05:46:31;98437.44;;;18.57;63.25
52719;BME280;38616;42.140;24.760;2022-09-27T05:48:57;98436.81;;;18.64;62.19
52719;BME280;38616;42.140;24.760;2022-09-27T05:51:22;98434.03;;;18.83;61.79
52719;BME280;38616;42.140;24.760;2022-09-27T05:53:47;98442.22;;;18.99;61.83
52719;BME280;38616;42.140;24.760;2022-09-27T05:56:13;98451.94;;;19.16;61.34
52719;BME280;38616;42.140;24.760;2022-09-27T05:58:38;98455.66;;;18.85;61.67
52719;BME280;38616;42.140;24.760;2022-09-27T06:01:06;98449.53;;;18.52;63.14
52719;BME280;38616;42.140;24.760;2022-09-27T06:03:32;98438.25;;;18.57;63.06
52719;BME280;38616;42.140;24.760;2022-09-27T06:06:00;98440.31;;;18.64;62.98
52719;BME280;38616;42.140;24.760;2022-09-27T06:08:26;98428.69;;;18.71;62.94
52719;BME280;38616;42.140;24.760;2022-09-27T06:10:58;98433.47;;;18.54;62.65
52719;BME280;38616;42.140;24.760;2022-09-27T06:13:24;98435.00;;;18.52;62.88
52719;BME280;38616;42.140;24.760;2022-09-27T06:15:51;98431.59;;;18.58;62.98
52719;BME280;38616;42.140;24.760;2022-09-27T06:18:17;98427.31;;;18.61;63.06
52719;BME280;38616;42.140;24.760;2022-09-27T06:20:42;98438.19;;;18.54;62.96
52719;BME280;38616;42.140;24.760;2022-09-27T06:23:17;98437.72;;;18.71;62.99
52719;BME280;38616;42.140;24.760;2022-09-27T06:25:43;98426.44;;;18.96;62.16
52719;BME280;38616;42.140;24.760;2022-09-27T06:28:09;98427.19;;;19.40;61.19
52719;BME280;38616;42.140;24.760;2022-09-27T06:30:42;98429.84;;;19.86;59.93
52719;BME280;38616;42.140;24.760;2022-09-27T06:33:08;98452.53;;;19.76;59.65
52719;BME280;38616;42.140;24.760;2022-09-27T06:35:35;98477.59;;;19.01;61.81
52719;BME280;38616;42.140;24.760;2022-09-27T06:38:04;98475.06;;;18.92;62.67
52719;BME280;38616;42.140;24.760;2022-09-27T06:40:31;98458.63;;;18.96;62.18
52719;BME280;38616;42.140;24.760;2022-09-27T06:43:03;98458.72;;;18.99;62.36
52719;BME280;38616;42.140;24.760;2022-09-27T06:45:29;98462.81;;;19.09;61.91
52719;BME280;38616;42.140;24.760;2022-09-27T06:47:56;98466.50;;;19.17;61.92
52719;BME280;38616;42.140;24.760;2022-09-27T06:50:21;98462.94;;;19.16;61.96
52719;BME280;38616;42.140;24.760;2022-09-27T06:52:47;98444.91;;;19.19;62.19
52719;BME280;38616;42.140;24.760;2022-09-27T06:55:12;98439.13;;;19.51;61.09
52719;BME280;38616;42.140;24.760;2022-09-27T06:57:38;98454.34;;;19.41;61.25
52719;BME280;38616;42.140;24.760;2022-09-27T07:00:21;98452.56;;;19.29;62.12
52719;BME280;38616;42.140;24.760;2022-09-27T07:02:53;98452.34;;;18.75;63.75
52719;BME280;38616;42.140;24.760;2022-09-27T07:05:18;98452.50;;;18.63;64.92
52719;BME280;38616;42.140;24.760;2022-09-27T07:07:44;98461.69;;;18.90;64.43
52719;BME280;38616;42.140;24.760;2022-09-27T07:10:11;98465.00;;;19.43;62.90
52719;BME280;38616;42.140;24.760;2022-09-27T07:12:37;98459.00;;;19.87;61.67
52719;BME280;38616;42.140;24.760;2022-09-27T07:15:03;98455.75;;;20.05;61.08
52719;BME280;38616;42.140;24.760;2022-09-27T07:17:29;98457.13;;;19.91;60.66
52719;BME280;38616;42.140;24.760;2022-09-27T07:19:54;98458.34;;;19.71;61.42
52719;BME280;38616;42.140;24.760;2022-09-27T07:22:20;98453.88;;;19.86;60.99
52719;BME280;38616;42.140;24.760;2022-09-27T07:24:45;98447.81;;;19.76;61.48
52719;BME280;38616;42.140;24.760;2022-09-27T07:27:10;98450.38;;;19.66;62.02
52719;BME280;38616;42.140;24.760;2022-09-27T07:29:35;98443.59;;;19.83;61.84
52719;BME280;38616;42.140;24.760;2022-09-27T07:32:01;98431.81;;;20.13;61.18
52719;BME280;38616;42.140;24.760;2022-09-27T07:34:26;98425.00;;;20.03;61.37
52719;BME280;38616;42.140;24.760;2022-09-27T07:36:52;98424.66;;;20.08;61.41
52719;BME280;38616;42.140;24.760;2022-09-27T07:39:19;98411.47;;;19.94;61.36
52719;BME280;38616;42.140;24.760;2022-09-27T07:41:46;98429.88;;;20.13;61.04
52719;BME280;38616;42.140;24.760;2022-09-27T07:44:11;98449.91;;;20.10;61.25
52719;BME280;38616;42.140;24.760;2022-09-27T07:46:38;98456.88;;;20.31;60.83
52719;BME280;38616;42.140;24.760;2022-09-27T07:49:03;98450.75;;;20.45;60.02
52719;BME280;38616;42.140;24.760;2022-09-27T07:51:28;98444.31;;;20.67;59.39
52719;BME280;38616;42.140;24.760;2022-09-27T07:53:54;98450.63;;;21.02;58.63
52719;BME280;38616;42.140;24.760;2022-09-27T07:56:19;98445.63;;;21.15;58.51
52719;BME280;38616;42.140;24.760;2022-09-27T07:58:44;98443.00;;;21.33;57.99
52719;BME280;38616;42.140;24.760;2022-09-27T08:01:10;98442.44;;;21.13;58.21
52719;BME280;38616;42.140;24.760;2022-09-27T08:03:35;98435.91;;;21.32;57.65
52719;BME280;38616;42.140;24.760;2022-09-27T08:06:02;98441.13;;;21.00;58.13
52719;BME280;38616;42.140;24.760;2022-09-27T08:08:28;98443.66;;;21.16;57.60
52719;BME280;38616;42.140;24.760;2022-09-27T08:10:53;98434.88;;;20.69;58.72
52719;BME280;38616;42.140;24.760;2022-09-27T08:13:18;98425.31;;;20.93;58.49
52719;BME280;38616;42.140;24.760;2022-09-27T08:15:44;98428.34;;;20.84;57.96
52719;BME280;38616;42.140;24.760;2022-09-27T08:18:09;98427.72;;;20.98;58.02
52719;BME280;38616;42.140;24.760;2022-09-27T08:20:35;98432.50;;;21.05;57.77
52719;BME280;38616;42.140;24.760;2022-09-27T08:23:00;98426.88;;;20.60;58.85
52719;BME280;38616;42.140;24.760;2022-09-27T08:25:28;98425.34;;;20.62;58.70
52719;BME280;38616;42.140;24.760;2022-09-27T08:27:57;98423.72;;;20.95;57.93
52719;BME280;38616;42.140;24.760;2022-09-27T08:30:23;98434.22;;;21.17;57.59
52719;BME280;38616;42.140;24.760;2022-09-27T08:32:53;98436.97;;;20.79;58.50
52719;BME280;38616;42.140;24.760;2022-09-27T08:35:18;98422.53;;;20.93;58.19
52719;BME280;38616;42.140;24.760;2022-09-27T08:37:51;98419.63;;;20.78;58.54
52719;BME280;38616;42.140;24.760;2022-09-27T08:40:16;98432.69;;;20.51;59.39
52719;BME280;38616;42.140;24.760;2022-09-27T08:45:12;98430.19;;;20.73;58.34
52719;BME280;38616;42.140;24.760;2022-09-27T08:47:43;98422.72;;;20.77;58.13
52719;BME280;38616;42.140;24.760;2022-09-27T08:50:17;98410.19;;;20.83;57.69
52719;BME280;38616;42.140;24.760;2022-09-27T08:52:46;98405.44;;;21.21;57.10
52719;BME280;38616;42.140;24.760;2022-09-27T08:57:44;98398.50;;;21.98;55.08
52719;BME280;38616;42.140;24.760;2022-09-27T09:00:13;98397.97;;;21.74;55.56
52719;BME280;38616;42.140;24.760;2022-09-27T09:02:39;98391.59;;;21.66;55.76
52719;BME280;38616;42.140;24.760;2022-09-27T09:05:06;98396.19;;;22.04;55.12
52719;BME280;38616;42.140;24.760;2022-09-27T09:12:47;98394.22;;;22.08;53.91
52719;BME280;38616;42.140;24.760;2022-09-27T09:17:54;98369.50;;;22.44;53.68
52719;BME280;38616;42.140;24.760;2022-09-27T09:20:48;98379.00;;;22.50;53.60
52719;BME280;38616;42.140;24.760;2022-09-27T09:23:17;98382.59;;;22.69;53.72
52719;BME280;38616;42.140;24.760;2022-09-27T09:25:50;98367.97;;;22.76;52.27
52719;BME280;38616;42.140;24.760;2022-09-27T09:33:31;98345.75;;;22.43;52.37
52719;BME280;38616;42.140;24.760;2022-09-27T09:40:55;98326.06;;;22.81;51.47
52719;BME280;38616;42.140;24.760;2022-09-27T09:43:28;98326.88;;;22.88;51.28
52719;BME280;38616;42.140;24.760;2022-09-27T09:46:06;98320.94;;;22.97;51.23
52719;BME280;38616;42.140;24.760;2022-09-27T09:51:18;98315.81;;;22.96;50.05
52719;BME280;38616;42.140;24.760;2022-09-27T09:53:52;98307.88;;;22.62;50.99
52719;BME280;38616;42.140;24.760;2022-09-27T09:58:49;98297.59;;;22.98;50.33
52719;BME280;38616;42.140;24.760;2022-09-27T10:03:53;98293.66;;;22.96;50.67
52719;BME280;38616;42.140;24.760;2022-09-27T10:06:19;98290.91;;;22.88;50.71
52719;BME280;38616;42.140;24.760;2022-09-27T10:08:44;98286.53;;;22.87;50.56
52719;BME280;38616;42.140;24.760;2022-09-27T10:11:18;98299.97;;;22.96;50.35
52719;BME280;38616;42.140;24.760;2022-09-27T10:13:47;98291.28;;;22.83;50.02
52719;BME280;38616;42.140;24.760;2022-09-27T10:16:14;98293.66;;;22.74;50.31
52719;BME280;38616;42.140;24.760;2022-09-27T10:18:40;98286.94;;;22.86;50.27
52719;BME280;38616;42.140;24.760;2022-09-27T10:21:17;98290.09;;;22.92;50.44
52719;BME280;38616;42.140;24.760;2022-09-27T10:24:03;98283.38;;;22.93;50.60
52719;BME280;38616;42.140;24.760;2022-09-27T10:26:29;98274.25;;;22.70;50.73
52719;BME280;38616;42.140;24.760;2022-09-27T10:28:55;98271.91;;;22.76;50.57
52719;BME280;38616;42.140;24.760;2022-09-27T10:31:21;98273.06;;;22.64;50.82
52719;BME280;38616;42.140;24.760;2022-09-27T10:33:51;98275.06;;;22.71;51.24
52719;BME280;38616;42.140;24.760;2022-09-27T10:36:25;98277.84;;;22.85;50.73
52719;BME280;38616;42.140;24.760;2022-09-27T10:39:01;98266.75;;;22.75;50.24
52719;BME280;38616;42.140;24.760;2022-09-27T10:41:32;98266.34;;;22.62;50.67
52719;BME280;38616;42.140;24.760;2022-09-27T10:47:07;98247.78;;;22.73;50.39
52719;BME280;38616;42.140;24.760;2022-09-27T10:50:01;98245.41;;;22.50;51.50
52719;BME280;38616;42.140;24.760;2022-09-27T10:52:27;98251.69;;;23.01;50.66
52719;BME280;38616;42.140;24.760;2022-09-27T10:54:56;98237.84;;;23.15;50.19
52719;BME280;38616;42.140;24.760;2022-09-27T10:57:23;98239.03;;;23.40;49.00
52719;BME280;38616;42.140;24.760;2022-09-27T11:00:04;98231.13;;;23.09;49.15
52719;BME280;38616;42.140;24.760;2022-09-27T11:02:35;98233.56;;;22.78;50.42
52719;BME280;38616;42.140;24.760;2022-09-27T11:07:26;98227.94;;;23.22;49.83
52719;BME280;38616;42.140;24.760;2022-09-27T11:09:53;98224.78;;;23.20;49.54
52719;BME280;38616;42.140;24.760;2022-09-27T11:12:19;98224.78;;;23.34;49.35
52719;BME280;38616;42.140;24.760;2022-09-27T11:14:47;98224.69;;;23.63;48.98
52719;BME280;38616;42.140;24.760;2022-09-27T11:55:02;98168.09;;;24.28;45.36
52719;BME280;38616;42.140;24.760;2022-09-27T11:58:12;98166.09;;;24.28;45.60
52719;BME280;38616;42.140;24.760;2022-09-27T12:00:27;98177.91;;;24.36;45.07
52719;BME280;38616;42.140;24.760;2022-09-27T12:08:00;98159.13;;;25.00;44.00
52719;BME280;38616;42.140;24.760;2022-09-27T12:10:28;98150.81;;;24.97;44.10
52719;BME280;38616;42.140;24.760;2022-09-27T12:12:54;98162.41;;;25.26;43.78
52719;BME280;38616;42.140;24.760;2022-09-27T12:15:22;98147.94;;;25.42;44.05
52719;BME280;38616;42.140;24.760;2022-09-27T12:17:49;98152.22;;;25.50;44.45
52719;BME280;38616;42.140;24.760;2022-09-27T12:20:23;98154.94;;;25.54;44.16
52719;BME280;38616;42.140;24.760;2022-09-27T12:22:57;98149.34;;;25.58;44.11
52719;BME280;38616;42.140;24.760;2022-09-27T12:25:25;98146.78;;;25.71;43.51
52719;BME280;38616;42.140;24.760;2022-09-27T12:28:03;98150.97;;;25.55;43.67
52719;BME280;38616;42.140;24.760;2022-09-27T12:30:30;98144.50;;;25.62;43.73
52719;BME280;38616;42.140;24.760;2022-09-27T12:36:05;98139.19;;;25.75;43.06
52719;BME280;38616;42.140;24.760;2022-09-27T12:41:04;98134.84;;;25.08;43.76
52719;BME280;38616;42.140;24.760;2022-09-27T12:43:32;98132.13;;;25.35;43.24
52719;BME280;38616;42.140;24.760;2022-09-27T12:46:19;98122.75;;;25.22;43.80
52719;BME280;38616;42.140;24.760;2022-09-27T12:51:24;98110.03;;;25.25;43.76
52719;BME280;38616;42.140;24.760;2022-09-27T13:01:48;98093.97;;;25.71;42.89
52719;BME280;38616;42.140;24.760;2022-09-27T13:04:31;98085.66;;;25.67;42.57
52719;BME280;38616;42.140;24.760;2022-09-27T13:07:07;98096.94;;;25.84;42.24
52719;BME280;38616;42.140;24.760;2022-09-27T13:12:08;98101.09;;;25.44;43.07
52719;BME280;38616;42.140;24.760;2022-09-27T13:14:40;98112.34;;;25.30;43.49
52719;BME280;38616;42.140;24.760;2022-09-27T13:17:30;98100.06;;;25.27;43.71
52719;BME280;38616;42.140;24.760;2022-09-27T13:19:51;98100.31;;;25.40;43.50
52719;BME280;38616;42.140;24.760;2022-09-27T13:24:51;98096.19;;;25.52;43.56
52719;BME280;38616;42.140;24.760;2022-09-27T13:29:52;98089.28;;;25.64;42.72
52719;BME280;38616;42.140;24.760;2022-09-27T13:32:36;98081.66;;;25.68;42.66
52719;BME280;38616;42.140;24.760;2022-09-27T13:37:54;98090.84;;;25.65;42.61
52719;BME280;38616;42.140;24.760;2022-09-27T13:40:27;98078.06;;;25.99;41.99
52719;BME280;38616;42.140;24.760;2022-09-27T13:45:57;98083.69;;;25.67;43.06
52719;BME280;38616;42.140;24.760;2022-09-27T13:48:29;98074.66;;;25.60;43.13
52719;BME280;38616;42.140;24.760;2022-09-27T13:53:57;98098.34;;;25.68;42.95
52719;BME280;38616;42.140;24.760;2022-09-27T13:59:01;98124.22;;;25.34;44.08
52719;BME280;38616;42.140;24.760;2022-09-27T14:01:30;98140.47;;;25.01;44.96
52719;BME280;38616;42.140;24.760;2022-09-27T14:04:01;98141.38;;;24.90;45.36
52719;BME280;38616;42.140;24.760;2022-09-27T14:06:30;98137.69;;;25.01;44.94
52719;BME280;38616;42.140;24.760;2022-09-27T14:08:59;98128.38;;;24.80;45.61
52719;BME280;38616;42.140;24.760;2022-09-27T14:11:27;98123.09;;;24.93;45.21
52719;BME280;38616;42.140;24.760;2022-09-27T14:13:54;98118.22;;;24.62;46.72
52719;BME280;38616;42.140;24.760;2022-09-27T14:16:20;98122.53;;;24.25;49.18
52719;BME280;38616;42.140;24.760;2022-09-27T14:18:55;98109.34;;;23.84;51.64
52719;BME280;38616;42.140;24.760;2022-09-27T14:21:26;98123.19;;;23.84;52.14
52719;BME280;38616;42.140;24.760;2022-09-27T14:23:53;98136.50;;;23.36;54.13
52719;BME280;38616;42.140;24.760;2022-09-27T14:26:22;98155.94;;;23.33;54.33
52719;BME280;38616;42.140;24.760;2022-09-27T14:28:48;98138.13;;;23.19;54.87
52719;BME280;38616;42.140;24.760;2022-09-27T14:33:40;98137.75;;;23.06;55.54
52719;BME280;38616;42.140;24.760;2022-09-27T14:36:06;98136.94;;;23.31;54.76
52719;BME280;38616;42.140;24.760;2022-09-27T14:39:11;98127.41;;;23.39;54.75
52719;BME280;38616;42.140;24.760;2022-09-27T14:41:37;98124.97;;;23.45;54.52
52719;BME280;38616;42.140;24.760;2022-09-27T14:44:02;98117.94;;;23.22;55.54
52719;BME280;38616;42.140;24.760;2022-09-27T14:46:28;98111.56;;;23.40;54.98
52719;BME280;38616;42.140;24.760;2022-09-27T14:48:54;98109.38;;;23.76;53.78
52719;BME280;38616;42.140;24.760;2022-09-27T14:51:23;98110.94;;;23.81;53.96
52719;BME280;38616;42.140;24.760;2022-09-27T14:53:51;98106.56;;;23.84;53.87
52719;BME280;38616;42.140;24.760;2022-09-27T14:56:31;98120.47;;;23.76;54.21
52719;BME280;38616;42.140;24.760;2022-09-27T14:59:01;98116.44;;;23.88;54.05
52719;BME280;38616;42.140;24.760;2022-09-27T15:01:27;98126.09;;;23.62;54.37
52719;BME280;38616;42.140;24.760;2022-09-27T15:03:53;98136.34;;;23.72;54.11
52719;BME280;38616;42.140;24.760;2022-09-27T15:06:20;98128.47;;;23.60;54.57
52719;BME280;38616;42.140;24.760;2022-09-27T15:08:46;98122.44;;;23.76;54.73
52719;BME280;38616;42.140;24.760;2022-09-27T15:11:13;98125.69;;;23.64;54.87
52719;BME280;38616;42.140;24.760;2022-09-27T15:13:39;98109.81;;;23.68;54.76
52719;BME280;38616;42.140;24.760;2022-09-27T15:16:09;98111.84;;;23.60;54.65
52719;BME280;38616;42.140;24.760;2022-09-27T15:18:41;98102.34;;;23.57;55.06
52719;BME280;38616;42.140;24.760;2022-09-27T15:21:07;98115.44;;;23.53;55.15
52719;BME280;38616;42.140;24.760;2022-09-27T15:23:34;98120.63;;;23.44;55.29
52719;BME280;38616;42.140;24.760;2022-09-27T15:28:45;98116.66;;;23.49;54.93
52719;BME280;38616;42.140;24.760;2022-09-27T15:31:11;98098.84;;;23.50;54.54
52719;BME280;38616;42.140;24.760;2022-09-27T15:33:37;98075.09;;;23.49;54.27
52719;BME280;38616;42.140;24.760;2022-09-27T15:36:04;98078.28;;;23.43;54.52
52719;BME280;38616;42.140;24.760;2022-09-27T15:38:33;98056.84;;;23.51;54.04